createdAt,value
2018-09-28T00:01:50.117Z,75.60
2018-09-28T00:04:20.568Z,76.20
2018-09-28T00:06:51.000Z,76.30
2018-09-28T00:09:20.625Z,76.20
2018-09-28T00:11:50.478Z,75.80
2018-09-28T00:14:20.498Z,75.60
2018-09-28T00:16:50.952Z,76.00
2018-09-28T00:19:20.949Z,76.30
2018-09-28T00:21:51.056Z,76.20
2018-09-28T00:24:20.857Z,76.20
2018-09-28T00:26:51.145Z,75.60
2018-09-28T00:29:20.995Z,75.90
2018-09-28T00:31:50.668Z,75.70
2018-09-28T00:34:21.189Z,76.10
2018-09-28T00:36:51.505Z,75.80
2018-09-28T00:39:21.892Z,76.30
2018-09-28T00:41:51.430Z,76.50
2018-09-28T00:44:21.099Z,76.40
2018-09-28T00:46:50.859Z,76.40
2018-09-28T00:49:20.693Z,76.60
2018-09-28T00:51:51.211Z,76.70
2018-09-28T00:54:21.930Z,75.70
2018-09-28T00:56:52.003Z,75.40
2018-09-28T00:59:21.419Z,76.40
2018-09-28T01:01:51.446Z,75.70
2018-09-28T01:04:21.128Z,75.50
2018-09-28T01:06:51.711Z,75.70
2018-09-28T01:09:22.257Z,76.30
2018-09-28T01:11:51.748Z,76.00
2018-09-28T01:14:22.278Z,76.00
2018-09-28T01:16:52.240Z,76.00
2018-09-28T01:19:21.743Z,76.50
2018-09-28T01:21:51.398Z,76.00
2018-09-28T01:24:21.983Z,76.00
2018-09-28T01:26:51.330Z,76.00
2018-09-28T01:29:21.404Z,75.80
2018-09-28T01:31:52.338Z,75.80
2018-09-28T01:34:21.721Z,75.30
2018-09-28T01:36:51.397Z,76.00
2018-09-28T01:39:21.210Z,76.40
2018-09-28T01:41:51.286Z,77.10
2018-09-28T01:44:21.913Z,76.80
2018-09-28T01:46:51.976Z,77.30
2018-09-28T01:49:21.481Z,77.10
2018-09-28T01:51:51.143Z,76.60
2018-09-28T01:54:21.163Z,76.10
2018-09-28T01:56:51.323Z,76.50
2018-09-28T01:59:21.065Z,76.90
2018-09-28T02:01:51.092Z,76.50
2018-09-28T02:04:21.248Z,76.30
2018-09-28T02:06:53.029Z,76.60
2018-09-28T02:09:22.523Z,75.70
2018-09-28T02:11:51.893Z,75.90
2018-09-28T02:14:22.588Z,76.40
2018-09-28T02:16:52.024Z,76.50
2018-09-28T02:19:21.579Z,76.60
2018-09-28T02:21:51.338Z,76.50
2018-09-28T02:24:21.557Z,75.80
2018-09-28T02:26:52.241Z,76.10
2018-09-28T02:29:21.911Z,76.30
2018-09-28T02:31:51.634Z,76.30
2018-09-28T02:34:21.125Z,76.30
2018-09-28T02:36:51.700Z,76.40
2018-09-28T02:39:21.407Z,76.50
2018-09-28T02:41:52.035Z,76.30
2018-09-28T02:44:22.714Z,76.60
2018-09-28T02:46:52.178Z,76.30
2018-09-28T02:49:21.476Z,77.00
2018-09-28T02:51:52.156Z,76.80
2018-09-28T02:54:21.718Z,76.70
2018-09-28T02:56:53.026Z,76.50
2018-09-28T02:59:22.398Z,76.90
2018-09-28T03:01:51.717Z,77.00
2018-09-28T03:04:22.570Z,77.00
2018-09-28T03:06:52.382Z,77.60
2018-09-28T03:09:21.677Z,77.40
2018-09-28T03:11:51.982Z,76.20
2018-09-28T03:14:21.309Z,76.20
2018-09-28T03:16:51.067Z,76.50
2018-09-28T03:19:20.914Z,76.50
2018-09-28T03:21:51.010Z,75.30
2018-09-28T03:24:20.618Z,76.20
2018-09-28T03:26:51.342Z,76.50
2018-09-28T03:29:21.493Z,76.10
2018-09-28T03:31:52.696Z,76.30
2018-09-28T03:34:22.294Z,76.30
2018-09-28T03:36:51.846Z,76.50
2018-09-28T03:39:22.238Z,76.70
2018-09-28T03:41:53.198Z,76.80
2018-09-28T03:44:22.751Z,76.60
2018-09-28T03:46:52.638Z,75.90
2018-09-28T03:49:22.285Z,76.20
2018-09-28T03:51:51.859Z,76.00
2018-09-28T03:54:21.462Z,75.70
2018-09-28T03:56:51.212Z,75.50
2018-09-28T03:59:20.978Z,76.00
2018-09-28T04:01:50.972Z,74.90
2018-09-28T04:04:21.128Z,74.40
2018-09-28T04:06:50.798Z,73.60
2018-09-28T04:09:20.720Z,74.70
2018-09-28T04:11:50.492Z,75.00
2018-09-28T04:14:20.310Z,75.80
2018-09-28T04:16:50.011Z,75.60
2018-09-28T04:19:20.393Z,75.60
2018-09-28T04:21:56.600Z,75.70
2018-09-28T04:24:26.643Z,75.40
2018-09-28T04:26:56.307Z,75.60
2018-09-28T04:29:26.256Z,74.40
2018-09-28T04:31:56.122Z,74.60
2018-09-28T04:34:25.525Z,75.20
2018-09-28T04:36:55.050Z,75.70
2018-09-28T04:39:24.821Z,75.30
2018-09-28T04:41:54.355Z,75.40
2018-09-28T04:44:30.075Z,75.10
2018-09-28T04:46:59.424Z,75.20
2018-09-28T04:49:30.154Z,76.00
2018-09-28T04:51:59.732Z,75.60
2018-09-28T04:54:29.278Z,76.20
2018-09-28T04:56:58.794Z,75.10
2018-09-28T04:59:28.607Z,75.10
2018-09-28T05:01:57.957Z,76.00
2018-09-28T05:04:27.371Z,75.50
2018-09-28T05:06:57.097Z,75.60
2018-09-28T05:09:26.476Z,75.80
2018-09-28T05:11:55.802Z,75.40
2018-09-28T05:14:25.636Z,75.90
2018-09-28T05:16:55.070Z,76.00
2018-09-28T05:19:24.474Z,74.90
2018-09-28T05:21:54.413Z,75.40
2018-09-28T05:24:24.384Z,75.00
2018-09-28T05:26:53.742Z,75.50
2018-09-28T05:29:23.405Z,74.90
2018-09-28T05:31:52.778Z,75.00
2018-09-28T05:34:22.188Z,75.50
2018-09-28T05:36:52.122Z,75.40
2018-09-28T05:39:21.631Z,74.80
2018-09-28T05:41:51.634Z,74.10
2018-09-28T05:44:22.512Z,73.90
2018-09-28T05:46:51.928Z,74.20
2018-09-28T05:49:21.480Z,75.10
2018-09-28T05:51:51.722Z,75.60
2018-09-28T05:54:21.308Z,75.30
2018-09-28T05:56:51.890Z,75.50
2018-09-28T05:59:26.765Z,74.60
2018-09-28T06:02:01.235Z,74.20
2018-09-28T06:04:35.773Z,74.40
2018-09-28T06:07:05.433Z,74.60
2018-09-28T06:09:35.050Z,74.20
2018-09-28T06:12:04.529Z,74.40
2018-09-28T06:14:34.412Z,74.90
2018-09-28T06:17:03.833Z,74.80
2018-09-28T06:19:33.302Z,74.40
2018-09-28T06:22:02.899Z,74.60
2018-09-28T06:24:32.584Z,74.10
2018-09-28T06:27:02.220Z,74.50
2018-09-28T06:29:31.784Z,74.00
2018-09-28T06:32:01.158Z,74.30
2018-09-28T06:34:30.690Z,74.30
2018-09-28T06:37:00.240Z,73.60
2018-09-28T06:39:29.918Z,74.10
2018-09-28T06:42:00.312Z,74.40
2018-09-28T06:44:29.874Z,74.70
2018-09-28T06:46:59.465Z,74.80
2018-09-28T06:49:29.023Z,75.00
2018-09-28T06:51:58.871Z,75.00
2018-09-28T06:54:28.527Z,74.60
2018-09-28T06:56:57.885Z,74.50
2018-09-28T06:59:27.638Z,75.20
2018-09-28T07:01:57.071Z,74.80
2018-09-28T07:04:26.519Z,74.10
2018-09-28T07:06:56.347Z,74.70
2018-09-28T07:09:25.908Z,74.90
2018-09-28T07:11:55.420Z,74.60
2018-09-28T07:14:24.949Z,74.10
2018-09-28T07:16:54.560Z,73.80
2018-09-28T07:19:24.200Z,74.50
2018-09-28T07:21:53.643Z,74.00
2018-09-28T07:24:23.111Z,74.40
2018-09-28T07:26:53.005Z,74.50
2018-09-28T07:29:22.815Z,74.10
2018-09-28T07:31:52.685Z,72.70
2018-09-28T07:34:22.752Z,73.30
2018-09-28T07:36:52.693Z,73.00
2018-09-28T07:39:22.038Z,71.90
2018-09-28T07:41:51.494Z,73.20
2018-09-28T07:44:21.409Z,72.70
2018-09-28T07:46:51.301Z,72.40
2018-09-28T07:49:21.405Z,72.60
2018-09-28T07:51:51.440Z,72.50
2018-09-28T07:54:21.834Z,72.60
2018-09-28T07:56:52.116Z,72.40
2018-09-28T07:59:21.776Z,71.90
2018-09-28T08:01:51.571Z,71.70
2018-09-28T08:04:21.128Z,72.60
2018-09-28T08:06:51.210Z,73.90
2018-09-28T08:09:21.411Z,73.20
2018-09-28T08:11:51.341Z,72.20
2018-09-28T08:14:20.973Z,71.70
2018-09-28T08:16:51.687Z,71.90
2018-09-28T08:19:22.388Z,72.30
2018-09-28T08:21:51.935Z,71.50
2018-09-28T08:24:22.282Z,70.80
2018-09-28T08:26:52.122Z,71.80
2018-09-28T08:29:21.891Z,72.40
2018-09-28T08:31:52.110Z,70.80
2018-09-28T08:34:21.768Z,71.20
2018-09-28T08:36:52.773Z,70.50
2018-09-28T08:39:22.688Z,70.20
2018-09-28T08:41:52.280Z,71.60
2018-09-28T08:44:21.682Z,71.30
2018-09-28T08:46:51.639Z,71.30
2018-09-28T08:49:22.415Z,71.10
2018-09-28T08:51:51.707Z,70.70
2018-09-28T08:54:22.287Z,71.40
2018-09-28T08:56:51.840Z,70.70
2018-09-28T08:59:21.817Z,70.80
2018-09-28T09:01:52.071Z,70.10
2018-09-28T09:04:21.553Z,71.20
2018-09-28T09:06:51.438Z,70.70
2018-09-28T09:09:21.424Z,71.60
2018-09-28T09:11:51.061Z,70.80
2018-09-28T09:14:20.789Z,71.30
2018-09-28T09:16:50.926Z,71.30
2018-09-28T09:19:20.581Z,71.60
2018-09-28T09:21:50.193Z,71.10
2018-09-28T09:24:20.855Z,69.00
2018-09-28T09:26:50.919Z,69.20
2018-09-28T09:29:21.214Z,69.80
2018-09-28T09:31:50.929Z,70.80
2018-09-28T09:34:21.378Z,70.30
2018-09-28T09:36:51.044Z,69.90
2018-09-28T09:39:21.118Z,70.10
2018-09-28T09:41:50.708Z,70.30
2018-09-28T09:44:20.566Z,71.20
2018-09-28T09:46:50.395Z,70.60
2018-09-28T09:49:20.466Z,69.70
2018-09-28T09:51:51.547Z,70.20
2018-09-28T09:54:22.307Z,70.10
2018-09-28T09:56:51.998Z,68.20
2018-09-28T09:59:21.963Z,71.00
2018-09-28T10:01:57.777Z,70.90
2018-09-28T10:04:27.678Z,68.90
2018-09-28T10:06:57.537Z,67.80
2018-09-28T10:09:27.152Z,68.30
2018-09-28T10:11:56.823Z,69.00
2018-09-28T10:14:26.361Z,69.80
2018-09-28T10:16:55.762Z,69.10
2018-09-28T10:19:25.314Z,67.30
2018-09-28T10:21:55.209Z,67.60
2018-09-28T10:24:24.653Z,69.40
2018-09-28T10:26:55.147Z,67.90
2018-09-28T10:29:24.472Z,65.90
2018-09-28T10:31:54.062Z,68.00
2018-09-28T10:34:23.822Z,67.80
2018-09-28T10:36:53.415Z,69.50
2018-09-28T10:39:23.032Z,68.00
2018-09-28T10:41:52.895Z,67.40
2018-09-28T10:44:22.435Z,67.40
2018-09-28T10:46:51.851Z,68.50
2018-09-28T10:49:21.981Z,65.50
2018-09-28T10:51:51.507Z,66.10
2018-09-28T10:54:21.373Z,66.80
2018-09-28T10:56:51.502Z,66.50
2018-09-28T10:59:20.997Z,64.40
2018-09-28T11:01:51.173Z,64.60
2018-09-28T11:04:21.626Z,65.50
2018-09-28T11:06:53.338Z,66.20
2018-09-28T11:09:22.895Z,67.90
2018-09-28T11:11:52.678Z,69.70
2018-09-28T11:14:22.229Z,68.80
2018-09-28T11:16:52.433Z,68.10
2018-09-28T11:19:21.922Z,65.20
2018-09-28T11:21:52.450Z,64.90
2018-09-28T11:24:22.260Z,64.30
2018-09-28T11:26:51.874Z,64.00
2018-09-28T11:29:21.478Z,63.80
2018-09-28T11:31:52.399Z,63.80
2018-09-28T11:34:22.207Z,64.00
2018-09-28T11:36:52.497Z,65.70
2018-09-28T11:39:22.419Z,63.30
2018-09-28T11:41:51.935Z,62.80
2018-09-28T11:44:21.404Z,61.70
2018-09-28T11:46:51.112Z,61.70
2018-09-28T11:49:20.791Z,62.60
2018-09-28T11:51:50.896Z,61.20
2018-09-28T11:54:21.123Z,60.00
2018-09-28T11:56:51.130Z,61.50
2018-09-28T11:59:20.744Z,63.10
2018-09-28T12:01:51.013Z,61.20
2018-09-28T12:04:20.881Z,62.80
2018-09-28T12:06:51.775Z,60.80
2018-09-28T12:09:21.766Z,59.70
2018-09-28T12:11:52.046Z,61.00
2018-09-28T12:14:21.552Z,61.60
2018-09-28T12:16:51.882Z,60.60
2018-09-28T12:19:22.606Z,61.80
2018-09-28T12:21:52.094Z,62.20
2018-09-28T12:24:21.394Z,61.80
2018-09-28T12:26:51.810Z,63.20
2018-09-28T12:29:21.215Z,62.80
2018-09-28T12:31:51.593Z,61.30
2018-09-28T12:34:21.832Z,63.10
2018-09-28T12:36:52.478Z,62.40
2018-09-28T12:39:22.445Z,62.90
2018-09-28T12:41:51.846Z,60.50
2018-09-28T12:44:21.887Z,61.10
2018-09-28T12:46:51.829Z,59.50
2018-09-28T12:49:21.491Z,61.00
2018-09-28T12:51:52.459Z,62.50
2018-09-28T12:54:22.041Z,63.50
2018-09-28T12:56:51.618Z,62.10
2018-09-28T12:59:21.793Z,59.90
2018-09-28T13:01:51.637Z,61.00
2018-09-28T13:04:21.680Z,58.10
2018-09-28T13:06:51.785Z,59.00
2018-09-28T13:09:22.201Z,58.90
2018-09-28T13:11:51.788Z,59.40
2018-09-28T13:14:21.762Z,61.40
2018-09-28T13:16:52.353Z,60.10
2018-09-28T13:19:22.722Z,60.30
2018-09-28T13:21:52.375Z,57.90
2018-09-28T13:24:21.902Z,58.00
2018-09-28T13:26:51.426Z,59.80
2018-09-28T13:29:21.380Z,60.00
2018-09-28T13:31:51.089Z,57.30
2018-09-28T13:34:21.238Z,58.00
2018-09-28T13:36:51.832Z,58.30
2018-09-28T13:39:22.368Z,58.30
2018-09-28T13:41:51.876Z,57.90
2018-09-28T13:44:21.716Z,57.90
2018-09-28T13:46:51.649Z,57.10
2018-09-28T13:49:21.331Z,57.40
2018-09-28T13:51:52.447Z,55.40
2018-09-28T13:54:21.906Z,54.90
2018-09-28T13:56:52.150Z,55.60
2018-09-28T13:59:21.628Z,53.60
2018-09-28T14:01:51.976Z,54.60
2018-09-28T14:04:24.166Z,54.80
2018-09-28T14:06:53.634Z,55.60
2018-09-28T14:09:38.086Z,55.30
2018-09-28T14:12:07.565Z,54.30
2018-09-28T14:14:37.035Z,54.40
2018-09-28T14:17:06.767Z,53.40
2018-09-28T14:19:36.265Z,55.40
2018-09-28T14:22:05.729Z,55.10
2018-09-28T14:24:35.273Z,55.10
2018-09-28T14:27:04.658Z,55.90
2018-09-28T14:29:34.061Z,55.10
2018-09-28T14:32:03.881Z,54.50
2018-09-28T14:34:33.297Z,54.50
2018-09-28T14:37:02.763Z,55.60
2018-09-28T14:39:33.052Z,55.60
2018-09-28T14:42:02.562Z,55.90
2018-09-28T14:44:31.965Z,56.10
2018-09-28T14:47:01.771Z,55.80
2018-09-28T14:49:31.236Z,56.40
2018-09-28T14:52:00.781Z,56.00
2018-09-28T14:54:31.304Z,57.60
2018-09-28T14:57:00.921Z,56.60
2018-09-28T14:59:30.474Z,57.60
2018-09-28T15:02:00.006Z,55.30
2018-09-28T15:04:29.651Z,56.80
2018-09-28T15:06:59.428Z,55.50
2018-09-28T15:09:29.039Z,55.90
2018-09-28T15:11:58.404Z,57.10
2018-09-28T15:14:27.884Z,54.70
2018-09-28T15:16:57.712Z,56.20
2018-09-28T15:19:27.297Z,56.80
2018-09-28T15:21:56.748Z,56.90
2018-09-28T15:24:26.784Z,57.50
2018-09-28T15:26:56.243Z,57.80
2018-09-28T15:29:25.818Z,58.90
2018-09-28T15:31:55.710Z,58.70
2018-09-28T15:34:25.363Z,58.00
2018-09-28T15:36:55.257Z,57.60
2018-09-28T15:39:25.138Z,57.70
2018-09-28T15:41:55.072Z,58.90
2018-09-28T15:44:24.631Z,58.70
2018-09-28T15:46:54.238Z,58.10
2018-09-28T15:49:23.733Z,58.80
2018-09-28T15:51:53.124Z,58.10
2018-09-28T15:54:23.003Z,59.30
2018-09-28T15:56:52.554Z,59.60
2018-09-28T15:59:21.913Z,59.60
2018-09-28T16:01:52.903Z,59.80
2018-09-28T16:04:22.496Z,60.80
2018-09-28T16:08:33.672Z,62.30
2018-09-28T16:11:03.212Z,64.20
2018-09-28T16:13:32.790Z,64.40
2018-09-28T16:16:02.829Z,64.30
2018-09-28T16:18:33.803Z,64.00
2018-09-28T16:21:04.025Z,64.10
2018-09-28T16:23:33.533Z,64.20
2018-09-28T16:26:02.948Z,64.50
2018-09-28T16:28:32.566Z,64.50
2018-09-28T16:31:02.888Z,64.50
2018-09-28T16:33:32.925Z,64.60
2018-09-28T16:36:02.916Z,64.90
2018-09-28T16:38:32.478Z,65.30
2018-09-28T16:41:01.999Z,65.10
2018-09-28T16:43:31.851Z,65.30
2018-09-28T16:46:01.327Z,64.50
2018-09-28T16:48:31.179Z,64.20
2018-09-28T16:51:00.999Z,64.90
2018-09-28T16:53:30.648Z,65.10
2018-09-28T16:56:01.168Z,64.90
2018-09-28T16:58:31.038Z,64.00
2018-09-28T17:01:00.648Z,64.10
2018-09-28T17:03:30.784Z,64.70
2018-09-28T17:06:00.743Z,63.20
2018-09-28T17:08:30.374Z,63.60
2018-09-28T17:11:00.464Z,63.20
2018-09-28T17:13:29.971Z,63.90
2018-09-28T17:15:59.605Z,64.20
2018-09-28T17:18:29.091Z,64.30
2018-09-28T17:21:03.598Z,64.20
2018-09-28T17:23:34.099Z,64.40
2018-09-28T17:26:03.582Z,64.00
2018-09-28T17:28:33.308Z,64.10
2018-09-28T17:31:02.840Z,64.80
2018-09-28T17:33:32.373Z,64.30
2018-09-28T17:36:02.180Z,64.50
2018-09-28T17:38:31.717Z,64.90
2018-09-28T17:41:01.238Z,65.00
2018-09-28T17:43:30.797Z,63.90
2018-09-28T17:46:01.823Z,64.00
2018-09-28T17:48:31.482Z,64.10
2018-09-28T17:51:01.058Z,63.90
2018-09-28T17:53:30.741Z,63.40
2018-09-28T17:56:00.202Z,63.70
2018-09-28T17:58:29.810Z,63.10
2018-09-28T18:01:01.419Z,63.80
2018-09-28T18:03:31.377Z,63.40
2018-09-28T18:06:00.778Z,63.30
2018-09-28T18:08:30.452Z,62.90
2018-09-28T18:11:00.552Z,61.40
2018-09-28T18:13:30.031Z,59.50
2018-09-28T18:15:59.620Z,60.80
2018-09-28T18:18:29.499Z,60.20
2018-09-28T18:20:59.009Z,59.20
2018-09-28T18:23:28.457Z,60.20
2018-09-28T18:25:58.851Z,60.20
2018-09-28T18:28:28.577Z,58.90
2018-09-28T18:31:00.325Z,59.70
2018-09-28T18:33:30.693Z,60.40
2018-09-28T18:36:00.313Z,57.30
2018-09-28T18:38:29.882Z,58.90
2018-09-28T18:41:00.701Z,57.60
2018-09-28T18:43:30.627Z,58.30
2018-09-28T18:46:00.187Z,58.40
2018-09-28T18:48:29.883Z,57.70
2018-09-28T18:50:59.389Z,58.70
2018-09-28T18:53:29.202Z,58.40
2018-09-28T18:55:58.989Z,55.90
2018-09-28T18:58:28.352Z,54.30
2018-09-28T19:00:58.502Z,56.50
2018-09-28T19:03:28.210Z,57.30
2018-09-28T19:05:57.933Z,57.80
2018-09-28T19:08:28.214Z,57.40
2018-09-28T19:10:57.901Z,56.70
2018-09-28T19:13:27.355Z,56.10
2018-09-28T19:15:56.782Z,57.30
2018-09-28T19:18:27.533Z,55.50
2018-09-28T19:20:56.924Z,57.10
2018-09-28T19:23:26.701Z,57.50
2018-09-28T19:25:56.432Z,57.80
2018-09-28T19:28:26.103Z,58.70
2018-09-28T19:30:55.871Z,59.00
2018-09-28T19:33:25.265Z,59.60
2018-09-28T19:35:54.697Z,59.40
2018-09-28T19:38:24.325Z,59.10
2018-09-28T19:40:53.944Z,59.30
2018-09-28T19:43:23.641Z,58.00
2018-09-28T19:45:53.215Z,58.20
2018-09-28T19:48:22.867Z,59.10
2018-09-28T19:50:52.874Z,58.90
2018-09-28T19:53:22.873Z,58.70
2018-09-28T19:55:52.667Z,60.00
2018-09-28T19:58:23.239Z,59.60
2018-09-28T20:00:53.216Z,57.80
2018-09-28T20:03:23.170Z,57.50
2018-09-28T20:05:52.722Z,58.80
2018-09-28T20:08:23.923Z,57.40
2018-09-28T20:10:53.739Z,57.80
2018-09-28T20:13:23.064Z,58.90
2018-09-28T20:15:52.657Z,59.60
2018-09-28T20:18:22.397Z,58.70
2018-09-28T20:20:52.398Z,59.40
2018-09-28T20:23:21.739Z,59.20
2018-09-28T20:25:52.634Z,58.70
2018-09-28T20:28:22.192Z,59.70
2018-09-28T20:30:52.027Z,60.10
2018-09-28T20:33:21.937Z,61.20
2018-09-28T20:35:51.602Z,59.90
2018-09-28T20:38:21.411Z,59.90
2018-09-28T20:40:51.496Z,59.80
2018-09-28T20:43:21.641Z,58.50
2018-09-28T20:45:51.844Z,57.40
2018-09-28T20:48:22.797Z,59.10
2018-09-28T20:50:52.489Z,59.40
2018-09-28T20:53:23.137Z,58.70
2018-09-28T20:55:53.131Z,58.60
2018-09-28T20:58:23.064Z,59.10
2018-09-28T21:00:52.714Z,58.70
2018-09-28T21:03:22.311Z,58.60
2018-09-28T21:05:51.725Z,58.20
2018-09-28T21:08:21.985Z,59.00
2018-09-28T21:10:52.206Z,59.40
2018-09-28T21:13:21.676Z,58.70
2018-09-28T21:15:51.527Z,59.30
2018-09-28T21:18:21.914Z,61.00
2018-09-28T21:20:51.721Z,60.30
2018-09-28T21:23:22.657Z,60.40
2018-09-28T21:25:52.266Z,60.70
2018-09-28T21:28:21.667Z,60.30
2018-09-28T21:30:51.784Z,60.50
2018-09-28T21:33:21.494Z,61.00
2018-09-28T21:35:51.707Z,60.70
2018-09-28T21:38:22.756Z,59.60
2018-09-28T21:40:52.431Z,60.80
2018-09-28T21:43:34.708Z,61.30
2018-09-28T21:46:04.438Z,61.30
2018-09-28T21:48:34.256Z,60.80
2018-09-28T21:51:03.598Z,60.80
2018-09-28T21:53:33.308Z,59.70
2018-09-28T21:56:02.757Z,60.30
2018-09-28T21:58:32.311Z,60.00
2018-09-28T22:01:01.838Z,60.90
2018-09-28T22:03:31.646Z,60.50
2018-09-28T22:06:01.286Z,61.50
2018-09-28T22:08:30.988Z,61.40
2018-09-28T22:11:00.857Z,61.60
2018-09-28T22:13:30.441Z,62.00
2018-09-28T22:15:59.918Z,62.00
2018-09-28T22:18:29.798Z,61.90
2018-09-28T22:20:59.466Z,61.20
2018-09-28T22:23:28.936Z,61.10
2018-09-28T22:25:58.846Z,61.60
2018-09-28T22:28:28.540Z,62.10
2018-09-28T22:30:58.045Z,62.50
2018-09-28T22:33:27.703Z,62.10
2018-09-28T22:35:57.144Z,62.30
2018-09-28T22:38:26.643Z,62.50
2018-09-28T22:40:56.533Z,62.70
2018-09-28T22:43:25.983Z,62.70
2018-09-28T22:45:56.275Z,62.60
2018-09-28T22:48:25.891Z,62.90
2018-09-28T22:50:55.338Z,62.70
2018-09-28T22:53:24.743Z,62.30
2018-09-28T22:55:55.439Z,62.00
2018-09-28T22:58:26.187Z,62.60
2018-09-28T23:00:55.923Z,62.50
2018-09-28T23:03:25.457Z,62.60
2018-09-28T23:05:54.991Z,63.10
2018-09-28T23:08:24.715Z,63.80
2018-09-28T23:10:54.483Z,63.80
2018-09-28T23:15:58.608Z,63.50
2018-09-28T23:18:28.145Z,63.10
2018-09-28T23:20:57.879Z,63.50
2018-09-28T23:23:27.757Z,63.50
2018-09-28T23:25:57.449Z,63.50
2018-09-28T23:28:27.058Z,63.30
2018-09-28T23:30:56.939Z,62.70
2018-09-28T23:33:26.422Z,62.80
2018-09-28T23:35:55.866Z,62.70
2018-09-28T23:38:25.654Z,63.30
2018-09-28T23:40:55.139Z,62.40
2018-09-28T23:43:24.588Z,62.60
2018-09-28T23:45:54.609Z,63.10
2018-09-28T23:48:24.060Z,63.10
2018-09-28T23:50:53.885Z,63.10
2018-09-28T23:53:23.791Z,63.10
2018-09-28T23:55:53.397Z,62.70
2018-09-28T23:58:23.719Z,62.80
